Time;durP1;ratioP1;P1;durP2;ratioP2;P2;SDS_P1;SDS_P2;PMS_P1;PMS_P2;Temp;Humidity;BMP_temperature;BMP_pressure;BME280_temperature;BME280_humidity;BME280_pressure;Samples;Min_cycle;Max_cycle;Signal;HPM_P1;HPM_P2
2022/01/12 00:02:00;;;;;;;;;;;0.90;99.90;;;;;;5033563;28;20356;-72
2022/01/12 00:04:25;;;;;;;;;;;0.90;99.90;;;;;;5033609;28;19913;-72
2022/01/12 00:06:51;;;;;;;;;;;0.90;99.90;;;;;;5033679;28;19917;-72
2022/01/12 00:09:16;;;;;;;;;;;1.00;99.90;;;;;;5030600;28;19959;-73
2022/01/12 00:11:42;;;;;;;;;;;1.00;99.90;;;;;;5031013;28;19928;-72
2022/01/12 00:14:08;;;;;;;;;;;1.10;99.90;;;;;;5030323;28;19920;-72
2022/01/12 00:16:34;;;;;;;;;;;1.10;99.90;;;;;;5033364;28;19913;-72
2022/01/12 00:19:00;;;;;;;;;;;1.00;99.90;;;;;;5033444;28;19920;-72
2022/01/12 00:21:26;;;;;;;;;;;0.90;99.90;;;;;;5033436;28;20369;-72
2022/01/12 00:23:51;;;;;;;;;;;0.90;99.90;;;;;;5032232;28;19963;-72
2022/01/12 00:34:19;;;;;;;;;;;0.70;99.90;;;;;;5012291;28;19983;-72
2022/01/12 00:36:45;;;;;;;;;;;0.70;99.90;;;;;;5013700;28;20408;-72
2022/01/12 00:39:11;;;;;;;;;;;0.70;99.90;;;;;;5013489;28;19920;-72
2022/01/12 00:41:37;;;;;;;;;;;0.70;99.90;;;;;;5012152;28;19917;-72
2022/01/12 00:47:06;;;;;;;;;;;0.80;99.90;;;;;;5013587;28;20059;-72
2022/01/12 00:49:32;;;;;;;;;;;0.70;99.90;;;;;;5013674;28;19963;-72
2022/01/12 00:51:57;;;;;;;;;;;0.70;99.90;;;;;;5028500;28;20327;-72
2022/01/12 00:54:23;;;;;;;;;;;0.60;99.90;;;;;;5013231;28;19913;-71
2022/01/12 00:56:48;;;;;;;;;;;0.60;99.90;;;;;;5028488;28;19917;-72
2022/01/12 00:59:14;;;;;;;;;;;0.60;99.90;;;;;;5028566;28;19917;-71
2022/01/12 01:01:40;;;;;;;;;;;0.60;99.90;;;;;;5028886;28;19917;-71
2022/01/12 01:04:05;;;;;;;;;;;0.60;99.90;;;;;;5033642;28;19914;-71
2022/01/12 01:06:35;;;;;;;;;;;0.50;99.90;;;;;;5036529;28;20463;-71
2022/01/12 01:09:01;;;;;;;;;;;0.50;99.90;;;;;;5036871;28;19920;-71
2022/01/12 01:11:27;;;;;;;;;;;0.40;99.90;;;;;;5036815;28;20019;-71
2022/01/12 01:13:58;;;;;;;;;;;0.30;99.90;;;;;;5035495;28;20304;-71
2022/01/12 01:16:41;;;;;;;;;;;0.30;99.90;;;;;;5036815;28;20455;-71
2022/01/12 01:27:20;;;;;;;;;;;0.30;99.90;;;;;;5016641;28;20000;-70
2022/01/12 01:29:47;;;;;;;;;;;0.30;99.90;;;;;;5016551;28;20004;-70
2022/01/12 01:32:13;;;;;;;;;;;0.20;99.90;;;;;;5035498;28;19968;-70
2022/01/12 01:34:46;;;;;;;;;;;0.30;99.90;;;;;;5036526;28;19913;-70
2022/01/12 01:37:12;;;;;;;;;;;0.20;99.90;;;;;;5036346;28;19913;-70
2022/01/12 01:39:38;;;;;;;;;;;0.30;99.90;;;;;;5036183;28;19968;-70
2022/01/12 01:42:12;;;;;;;;;;;0.30;99.90;;;;;;5036123;28;19959;-71
2022/01/12 01:55:17;;;;;;;;;;;0.10;99.90;;;;;;5035921;28;19994;-71
2022/01/12 01:57:42;;;;;;;;;;;0.10;99.90;;;;;;5035762;28;19931;-71
2022/01/12 02:00:13;;;;;;;;;;;0.10;99.90;;;;;;5035909;28;20008;-71
2022/01/12 02:02:39;;;;;;;;;;;0.20;99.90;;;;;;5035356;28;19917;-71
2022/01/12 02:05:05;;;;;;;;;;;0.10;99.90;;;;;;5035864;28;19913;-71
2022/01/12 02:07:34;;;;;;;;;;;0.10;99.90;;;;;;5035886;28;19924;-71
2022/01/12 02:10:00;;;;;;;;;;;0.10;99.90;;;;;;5035852;28;19914;-71
2022/01/12 02:12:27;;;;;;;;;;;0.10;99.90;;;;;;5034356;28;19921;-71
2022/01/12 02:14:54;;;;;;;;;;;0.10;99.90;;;;;;5035340;28;19920;-71
2022/01/12 02:17:24;;;;;;;;;;;-0.10;99.90;;;;;;5034284;28;19945;-71
2022/01/12 02:41:21;;;;;;;;;;;-0.20;99.90;;;;;;5034778;28;20296;-70
2022/01/12 02:54:43;;;;;;;;;;;-0.10;99.90;;;;;;5034794;28;19917;-71
2022/01/12 02:57:09;;;;;;;;;;;-0.10;99.90;;;;;;5034832;28;20627;-70
2022/01/12 02:59:35;;;;;;;;;;;-0.20;99.90;;;;;;5034937;28;19913;-71
2022/01/12 03:04:29;;;;;;;;;;;-0.20;99.90;;;;;;5034532;28;19913;-70
2022/01/12 03:07:04;;;;;;;;;;;-0.20;99.90;;;;;;5034496;28;19963;-70
2022/01/12 03:09:29;;;;;;;;;;;-0.30;99.90;;;;;;5033273;28;19913;-70
2022/01/12 03:11:55;;;;;;;;;;;-0.20;99.90;;;;;;5033331;28;19921;-70
2022/01/12 03:14:21;;;;;;;;;;;-0.10;99.90;;;;;;5034621;28;19972;-71
2022/01/12 03:16:46;;;;;;;;;;;-0.10;99.90;;;;;;5034668;28;19919;-71
2022/01/12 03:19:12;;;;;;;;;;;-0.10;99.90;;;;;;5049661;28;19917;-70
2022/01/12 03:21:37;;;;;;;;;;;-0.20;99.90;;;;;;5034365;28;20407;-70
2022/01/12 03:24:03;;;;;;;;;;;-0.20;99.90;;;;;;5034260;28;19917;-70
2022/01/12 03:26:30;;;;;;;;;;;-0.30;99.90;;;;;;5033825;28;19921;-71
2022/01/12 03:28:57;;;;;;;;;;;-0.20;99.90;;;;;;5034274;28;19920;-71
2022/01/12 03:31:24;;;;;;;;;;;-0.20;99.90;;;;;;5034218;28;19921;-71
2022/01/12 03:39:06;;;;;;;;;;;-0.30;99.90;;;;;;5033996;28;19913;-71
2022/01/12 03:41:34;;;;;;;;;;;-0.30;99.90;;;;;;5032688;28;19992;-71
2022/01/12 03:44:01;;;;;;;;;;;-0.40;99.90;;;;;;5033795;28;19913;-72
2022/01/12 03:46:33;;;;;;;;;;;-0.50;99.90;;;;;;5033822;28;20284;-71
2022/01/12 03:48:58;;;;;;;;;;;-0.40;99.90;;;;;;5033672;28;19944;-71
2022/01/12 03:51:24;;;;;;;;;;;-0.30;99.90;;;;;;5033693;28;19925;-71
2022/01/12 03:53:50;;;;;;;;;;;-0.30;99.90;;;;;;5033770;28;19917;-72
2022/01/12 03:56:16;;;;;;;;;;;-0.30;99.90;;;;;;5033169;28;19920;-70
2022/01/12 03:58:41;;;;;;;;;;;-0.40;99.90;;;;;;5032665;28;20074;-70
2022/01/12 04:01:07;;;;;;;;;;;-0.40;99.90;;;;;;5033855;28;19980;-70
2022/01/12 04:03:39;;;;;;;;;;;-0.40;99.90;;;;;;5028305;28;19918;-72
2022/01/12 04:08:48;;;;;;;;;;;-0.40;99.90;;;;;;5033506;28;19920;-70
2022/01/12 04:11:14;;;;;;;;;;;-0.30;99.90;;;;;;5033458;28;19917;-71
2022/01/12 04:13:42;;;;;;;;;;;-0.30;99.90;;;;;;5033610;28;19928;-71
2022/01/12 04:16:07;;;;;;;;;;;-0.30;99.90;;;;;;5030400;28;19999;-71
2022/01/12 04:18:33;;;;;;;;;;;-0.30;99.90;;;;;;5029721;28;20051;-71
2022/01/12 04:21:02;;;;;;;;;;;-0.20;99.90;;;;;;5031466;28;19921;-71
2022/01/12 04:23:28;;;;;;;;;;;-0.20;99.90;;;;;;5032709;28;19919;-71
2022/01/12 04:25:56;;;;;;;;;;;-0.20;99.90;;;;;;5033805;28;19913;-70
2022/01/12 04:28:23;;;;;;;;;;;-0.20;99.90;;;;;;5033574;28;19945;-70
2022/01/12 04:30:49;;;;;;;;;;;-0.30;99.90;;;;;;5033248;28;19917;-70
2022/01/12 04:33:17;;;;;;;;;;;-0.20;99.90;;;;;;5031345;28;19913;-71
2022/01/12 04:35:52;;;;;;;;;;;-0.20;99.90;;;;;;5033427;28;20383;-70
2022/01/12 04:38:18;;;;;;;;;;;-0.20;99.90;;;;;;5032908;28;19924;-70
2022/01/12 04:40:44;;;;;;;;;;;-0.30;99.90;;;;;;5037533;28;19913;-70
2022/01/12 04:43:10;;;;;;;;;;;-0.30;99.90;;;;;;5037287;28;19913;-72
2022/01/12 04:50:41;;;;;;;;;;;-0.50;99.90;;;;;;5037598;28;20458;-71
2022/01/12 04:53:07;;;;;;;;;;;-0.50;99.90;;;;;;5035856;28;19921;-71
2022/01/12 04:55:32;;;;;;;;;;;-0.60;99.90;;;;;;5036916;28;19959;-70
2022/01/12 04:57:58;;;;;;;;;;;-0.60;99.90;;;;;;5036797;28;19913;-70
2022/01/12 05:00:25;;;;;;;;;;;-0.60;99.90;;;;;;5035404;28;20356;-71
2022/01/12 05:08:38;;;;;;;;;;;-0.60;99.90;;;;;;5036794;28;20016;-71
2022/01/12 05:13:49;;;;;;;;;;;-0.60;99.90;;;;;;5036095;28;19983;-70
2022/01/12 05:16:14;;;;;;;;;;;-0.70;99.90;;;;;;5035309;28;20011;-70
2022/01/12 05:18:41;;;;;;;;;;;-0.70;99.90;;;;;;5036545;28;20003;-70
2022/01/12 05:21:07;;;;;;;;;;;-0.80;99.90;;;;;;5036679;28;19917;-70
2022/01/12 05:23:33;;;;;;;;;;;-0.80;99.90;;;;;;5051872;28;19970;-70
2022/01/12 05:25:59;;;;;;;;;;;-0.80;99.90;;;;;;5036497;28;20306;-70
2022/01/12 05:28:26;;;;;;;;;;;-0.80;99.90;;;;;;5036562;28;19913;-70
2022/01/12 05:30:52;;;;;;;;;;;-0.80;99.90;;;;;;5036442;28;20075;-70
2022/01/12 05:33:17;;;;;;;;;;;-0.90;99.90;;;;;;5036279;28;19979;-70
2022/01/12 05:35:43;;;;;;;;;;;-0.90;99.90;;;;;;5036309;28;19917;-70
2022/01/12 05:38:11;;;;;;;;;;;-0.90;99.90;;;;;;5036194;28;20003;-70
2022/01/12 05:40:37;;;;;;;;;;;-1.00;99.90;;;;;;5036271;28;19913;-70
2022/01/12 05:43:03;;;;;;;;;;;-1.00;99.90;;;;;;5036258;28;19980;-69
2022/01/12 05:45:31;;;;;;;;;;;-1.10;99.90;;;;;;5034989;28;19917;-70
2022/01/12 05:50:23;;;;;;;;;;;-1.10;99.90;;;;;;5035668;28;19917;-70
2022/01/12 05:52:49;;;;;;;;;;;-1.10;99.90;;;;;;5035711;28;19925;-70
2022/01/12 05:55:15;;;;;;;;;;;-1.10;99.90;;;;;;5034348;28;19920;-70
2022/01/12 05:57:41;;;;;;;;;;;-0.90;99.90;;;;;;5034570;28;20249;-69
2022/01/12 06:00:11;;;;;;;;;;;-1.00;99.90;;;;;;5035418;28;19917;-70
2022/01/12 06:02:37;;;;;;;;;;;-1.10;99.90;;;;;;5035958;28;20410;-69
2022/01/12 06:05:03;;;;;;;;;;;-1.00;99.90;;;;;;5034757;28;19949;-70
2022/01/12 06:07:29;;;;;;;;;;;-1.20;99.90;;;;;;5034533;28;19966;-70
2022/01/12 06:09:54;;;;;;;;;;;-1.30;99.90;;;;;;5035827;28;19917;-71
2022/01/12 06:12:20;;;;;;;;;;;-1.30;99.90;;;;;;5035684;28;19928;-70
2022/01/12 06:14:45;;;;;;;;;;;-1.30;99.90;;;;;;5034302;28;19917;-72
2022/01/12 06:17:11;;;;;;;;;;;-1.10;99.90;;;;;;5034267;28;19913;-70
2022/01/12 06:19:37;;;;;;;;;;;-1.20;99.90;;;;;;5035372;28;19921;-70
2022/01/12 06:22:03;;;;;;;;;;;-1.10;99.90;;;;;;5034396;28;19913;-70
2022/01/12 06:24:29;;;;;;;;;;;-1.20;99.90;;;;;;5033122;28;19913;-74
2022/01/12 06:26:56;;;;;;;;;;;-1.30;99.90;;;;;;5034302;28;19917;-69
2022/01/12 06:31:49;;;;;;;;;;;-1.40;99.90;;;;;;5031747;28;19933;-69
2022/01/12 06:34:15;;;;;;;;;;;-1.30;99.90;;;;;;5033610;28;19924;-70
2022/01/12 06:36:41;;;;;;;;;;;-1.30;99.90;;;;;;5033320;28;20258;-71
2022/01/12 06:39:09;;;;;;;;;;;-1.30;99.90;;;;;;5033384;28;19928;-70
2022/01/12 06:41:36;;;;;;;;;;;-1.30;99.90;;;;;;5033319;28;20011;-73
2022/01/12 06:44:02;;;;;;;;;;;-1.30;99.90;;;;;;5033192;28;20323;-70
2022/01/12 06:46:30;;;;;;;;;;;-1.30;99.90;;;;;;5032724;28;19913;-72
2022/01/12 06:48:56;;;;;;;;;;;-1.20;99.90;;;;;;5034893;28;19924;-69
2022/01/12 06:51:21;;;;;;;;;;;-1.20;99.90;;;;;;5027337;28;19925;-74
2022/01/12 06:53:47;;;;;;;;;;;-1.20;99.90;;;;;;5030287;28;19920;-74
2022/01/12 06:56:17;;;;;;;;;;;-1.40;99.90;;;;;;5030860;28;20360;-72
2022/01/12 06:58:43;;;;;;;;;;;-1.30;99.90;;;;;;5030929;28;19917;-73
2022/01/12 07:01:08;;;;;;;;;;;-0.40;99.90;;;;;;5030475;28;19921;-72
2022/01/12 07:03:34;;;;;;;;;;;-0.20;99.90;;;;;;5031641;28;19913;-74
2022/01/12 07:06:00;;;;;;;;;;;-0.70;99.90;;;;;;5029257;28;20319;-75
2022/01/12 07:08:26;;;;;;;;;;;-0.90;99.90;;;;;;5031945;28;20399;-70
2022/01/12 07:10:51;;;;;;;;;;;-0.90;99.90;;;;;;5030177;28;19982;-69
2022/01/12 07:13:17;;;;;;;;;;;-1.10;99.90;;;;;;5031205;28;19917;-74
2022/01/12 07:15:43;;;;;;;;;;;-1.10;99.90;;;;;;5030730;28;20400;-70
2022/01/12 07:18:09;;;;;;;;;;;-1.20;99.90;;;;;;5030459;28;19913;-69
2022/01/12 07:20:34;;;;;;;;;;;-1.30;99.90;;;;;;5031722;28;19920;-74
2022/01/12 07:23:00;;;;;;;;;;;-1.40;99.90;;;;;;5028871;28;19913;-71
2022/01/12 07:25:26;;;;;;;;;;;-1.20;99.90;;;;;;5033905;28;19919;-70
2022/01/12 07:27:52;;;;;;;;;;;-1.10;99.90;;;;;;5034336;28;20369;-70
2022/01/12 07:30:18;;;;;;;;;;;-1.20;99.90;;;;;;5034444;28;20399;-73
2022/01/12 07:32:43;;;;;;;;;;;-1.40;99.90;;;;;;5034125;28;19921;-73
2022/01/12 07:35:10;;;;;;;;;;;-1.50;99.90;;;;;;5029305;28;19999;-70
2022/01/12 07:37:36;;;;;;;;;;;-1.60;99.90;;;;;;5030961;28;20063;-71
2022/01/12 07:40:02;;;;;;;;;;;-1.70;99.90;;;;;;5030676;28;20000;-70
2022/01/12 07:42:27;;;;;;;;;;;-1.60;99.90;;;;;;5032897;28;20319;-70
2022/01/12 07:44:59;;;;;;;;;;;-1.60;99.90;;;;;;5032540;28;20051;-74
2022/01/12 07:47:28;;;;;;;;;;;-1.70;99.90;;;;;;5031676;28;20265;-70
2022/01/12 07:49:54;;;;;;;;;;;-1.60;99.90;;;;;;5029185;28;19921;-70
2022/01/12 07:52:20;;;;;;;;;;;-1.60;99.90;;;;;;5031073;28;19921;-70
2022/01/12 07:54:45;;;;;;;;;;;-1.70;99.90;;;;;;5031061;28;19917;-73
2022/01/12 07:57:11;;;;;;;;;;;-1.60;99.90;;;;;;5046612;28;20418;-69
2022/01/12 07:59:36;;;;;;;;;;;-1.70;99.90;;;;;;5030940;28;19948;-72
2022/01/12 08:02:02;;;;;;;;;;;-1.60;99.90;;;;;;5031169;28;19920;-69
2022/01/12 08:04:28;;;;;;;;;;;-1.60;99.90;;;;;;5029696;28;20364;-69
2022/01/12 08:06:53;;;;;;;;;;;-1.50;99.90;;;;;;5029931;28;19929;-70
2022/01/12 08:09:19;;;;;;;;;;;-1.50;99.90;;;;;;5031086;28;19963;-70
2022/01/12 08:11:45;;;;;;;;;;;-1.50;99.90;;;;;;5032643;28;19921;-72
2022/01/12 08:14:10;;;;;;;;;;;-1.40;99.90;;;;;;5031729;28;19924;-69
2022/01/12 08:16:37;;;;;;;;;;;-1.40;99.90;;;;;;5029087;28;19964;-71
2022/01/12 08:19:02;;;;;;;;;;;-1.50;99.90;;;;;;5027959;28;19913;-73
2022/01/12 08:21:29;;;;;;;;;;;-1.60;99.90;;;;;;5027353;28;19913;-69
2022/01/12 08:23:55;;;;;;;;;;;-1.50;99.90;;;;;;5030662;28;19913;-72
2022/01/12 08:26:21;;;;;;;;;;;-1.90;99.90;;;;;;5029007;28;19924;-71
2022/01/12 08:28:46;;;;;;;;;;;-2.10;99.90;;;;;;5029280;28;19919;-73
2022/01/12 08:31:12;;;;;;;;;;;-2.20;99.90;;;;;;5028972;28;19930;-71
2022/01/12 08:33:37;;;;;;;;;;;-2.20;99.90;;;;;;5027881;28;20007;-71
2022/01/12 08:36:04;;;;;;;;;;;-2.10;99.90;;;;;;5029835;28;20310;-73
2022/01/12 08:38:30;;;;;;;;;;;-1.90;99.90;;;;;;5028979;28;19917;-70
2022/01/12 08:40:55;;;;;;;;;;;-1.60;99.90;;;;;;5029613;28;20707;-74
2022/01/12 08:43:21;;;;;;;;;;;-1.50;99.90;;;;;;5029175;28;19943;-73
2022/01/12 08:45:47;;;;;;;;;;;-1.40;99.90;;;;;;5030722;28;19921;-72
2022/01/12 08:48:12;;;;;;;;;;;-1.40;99.90;;;;;;5032021;28;20475;-70
2022/01/12 08:50:38;;;;;;;;;;;-1.50;99.90;;;;;;5030194;28;19953;-71
2022/01/12 08:53:04;;;;;;;;;;;-1.30;99.90;;;;;;5030198;28;19947;-72
2022/01/12 08:55:30;;;;;;;;;;;-1.20;99.90;;;;;;5027707;28;20016;-70
2022/01/12 08:57:58;;;;;;;;;;;-1.10;99.90;;;;;;5029314;28;20380;-73
2022/01/12 09:00:25;;;;;;;;;;;-1.20;99.90;;;;;;5045181;28;19924;-70
2022/01/12 09:02:50;;;;;;;;;;;-1.20;99.90;;;;;;5030146;28;19924;-70
2022/01/12 09:05:16;;;;;;;;;;;-1.30;99.90;;;;;;5031407;28;19921;-71
2022/01/12 09:07:42;;;;;;;;;;;-1.20;99.90;;;;;;5031630;28;19913;-70
2022/01/12 09:10:09;;;;;;;;;;;-1.20;99.90;;;;;;5033196;28;19949;-71
2022/01/12 09:12:36;;;;;;;;;;;-1.10;99.90;;;;;;5032996;28;19928;-71
2022/01/12 09:15:03;;;;;;;;;;;-1.00;99.90;;;;;;5031770;28;19940;-70
2022/01/12 09:17:30;;;;;;;;;;;-1.00;99.90;;;;;;5031804;28;19952;-70
2022/01/12 09:19:56;;;;;;;;;;;-0.80;99.90;;;;;;5033060;28;19917;-71
2022/01/12 09:22:22;;;;;;;;;;;-0.70;99.90;;;;;;5032330;28;19978;-71
2022/01/12 09:24:49;;;;;;;;;;;-0.60;99.90;;;;;;5032535;28;19921;-70
2022/01/12 09:27:16;;;;;;;;;;;0.80;99.90;;;;;;5036872;28;19913;-71
2022/01/12 09:29:42;;;;;;;;;;;0.70;99.90;;;;;;5035717;28;20052;-71
2022/01/12 09:32:08;;;;;;;;;;;0.00;99.90;;;;;;5036417;28;20368;-71
2022/01/12 09:34:34;;;;;;;;;;;-0.30;99.90;;;;;;5036514;28;19920;-74
2022/01/12 09:37:00;;;;;;;;;;;-0.20;99.90;;;;;;5035012;28;20300;-73
2022/01/12 09:39:26;;;;;;;;;;;-0.30;99.90;;;;;;5036474;28;19913;-71
2022/01/12 09:41:51;;;;;;;;;;;-0.20;99.90;;;;;;5036706;28;19917;-71
2022/01/12 09:44:18;;;;;;;;;;;-0.20;99.90;;;;;;5036313;28;20372;-74
2022/01/12 09:46:43;;;;;;;;;;;-0.10;99.90;;;;;;5036356;28;19996;-71
2022/01/12 09:49:10;;;;;;;;;;;-0.20;99.90;;;;;;5036302;28;19952;-71
2022/01/12 09:51:36;;;;;;;;;;;-0.10;99.90;;;;;;5036111;28;19921;-72
2022/01/12 09:54:02;;;;;;;;;;;0.00;99.90;;;;;;5028343;28;19994;-72
2022/01/12 09:56:28;;;;;;;;;;;-0.10;99.90;;;;;;5033653;28;19928;-73
2022/01/12 09:58:55;;;;;;;;;;;0.00;99.90;;;;;;5024483;28;19917;-73
2022/01/12 10:01:31;;;;;;;;;;;0.10;99.90;;;;;;5031858;28;20928;-71
2022/01/12 10:04:07;;;;;;;;;;;0.30;99.90;;;;;;5032703;28;19920;-74
2022/01/12 10:06:40;;;;;;;;;;;0.30;99.90;;;;;;5031783;28;20368;-73
2022/01/12 10:09:05;;;;;;;;;;;0.30;99.90;;;;;;5031248;28;19920;-74
2022/01/12 10:11:31;;;;;;;;;;;0.30;99.90;;;;;;5030773;28;19921;-74
2022/01/12 10:13:58;;;;;;;;;;;0.30;99.90;;;;;;5033255;28;19917;-73
2022/01/12 10:16:26;;;;;;;;;;;0.40;99.90;;;;;;5034821;28;19958;-74
2022/01/12 10:19:01;;;;;;;;;;;0.30;99.90;;;;;;5031793;28;20261;-74
2022/01/12 10:21:28;;;;;;;;;;;0.70;99.90;;;;;;5032750;28;19924;-72
2022/01/12 10:23:57;;;;;;;;;;;0.80;99.90;;;;;;5031367;28;19917;-73
2022/01/12 10:26:34;;;;;;;;;;;0.80;99.90;;;;;;5031084;28;19909;-70
2022/01/12 10:29:04;;;;;;;;;;;1.00;99.90;;;;;;5034769;28;19920;-74
2022/01/12 10:31:29;;;;;;;;;;;0.60;99.90;;;;;;5032079;28;19921;-72
2022/01/12 10:34:01;;;;;;;;;;;1.30;99.90;;;;;;5033470;28;20035;-70
2022/01/12 10:36:35;;;;;;;;;;;1.50;99.90;;;;;;5031320;28;20011;-70
2022/01/12 10:39:04;;;;;;;;;;;0.90;99.90;;;;;;5030882;28;20000;-73
2022/01/12 10:41:30;;;;;;;;;;;0.70;99.90;;;;;;5031785;28;19924;-71
2022/01/12 10:43:56;;;;;;;;;;;0.50;99.90;;;;;;5031976;28;19914;-71
2022/01/12 10:46:26;;;;;;;;;;;1.10;99.90;;;;;;5032090;28;19944;-71
2022/01/12 10:48:54;;;;;;;;;;;1.50;99.90;;;;;;5034500;28;20047;-73
2022/01/12 10:51:21;;;;;;;;;;;0.80;99.90;;;;;;5032783;28;20454;-70
2022/01/12 10:53:50;;;;;;;;;;;0.50;99.90;;;;;;5032027;28;19913;-74
2022/01/12 10:56:17;;;;;;;;;;;0.70;99.90;;;;;;5028962;28;19917;-73
2022/01/12 10:58:44;;;;;;;;;;;0.80;99.90;;;;;;5031513;28;19917;-74
2022/01/12 11:01:10;;;;;;;;;;;0.80;99.90;;;;;;5032990;28;20357;-74
2022/01/12 11:03:37;;;;;;;;;;;0.80;99.90;;;;;;5030135;28;20254;-69
2022/01/12 11:06:04;;;;;;;;;;;1.20;99.90;;;;;;5032272;28;19917;-72
2022/01/12 11:08:29;;;;;;;;;;;1.40;99.90;;;;;;5030908;28;19921;-70
2022/01/12 11:10:57;;;;;;;;;;;1.60;99.90;;;;;;5033181;28;19917;-71
2022/01/12 11:13:23;;;;;;;;;;;1.60;99.90;;;;;;5031449;28;19924;-71
2022/01/12 11:15:49;;;;;;;;;;;1.70;99.90;;;;;;5027495;28;20257;-74
2022/01/12 11:18:15;;;;;;;;;;;1.80;99.90;;;;;;5027730;28;20065;-74
2022/01/12 11:20:42;;;;;;;;;;;1.70;99.90;;;;;;5030425;28;19913;-71
2022/01/12 11:23:13;;;;;;;;;;;1.50;99.90;;;;;;5048613;28;19959;-73
2022/01/12 11:25:40;;;;;;;;;;;1.40;99.90;;;;;;5030374;28;19913;-73
2022/01/12 11:28:25;;;;;;;;;;;1.40;99.90;;;;;;5030513;28;20003;-74
2022/01/12 11:30:51;;;;;;;;;;;1.10;99.90;;;;;;5030760;28;19920;-76
2022/01/12 11:33:23;;;;;;;;;;;1.10;99.90;;;;;;5032179;28;19921;-75
2022/01/12 11:35:52;;;;;;;;;;;1.20;99.90;;;;;;5031444;28;20128;-77
2022/01/12 11:38:23;;;;;;;;;;;1.10;99.90;;;;;;5032518;28;19952;-73
2022/01/12 11:40:50;;;;;;;;;;;1.10;99.90;;;;;;5029802;28;20288;-73
2022/01/12 11:43:19;;;;;;;;;;;0.90;99.90;;;;;;5030458;28;19960;-73
2022/01/12 11:45:45;;;;;;;;;;;0.80;99.90;;;;;;5029015;28;19986;-73
2022/01/12 11:48:11;;;;;;;;;;;0.90;99.90;;;;;;5029239;28;19924;-75
2022/01/12 11:50:37;;;;;;;;;;;0.70;99.90;;;;;;5030368;28;19913;-72
2022/01/12 11:53:02;;;;;;;;;;;0.70;99.90;;;;;;5030869;28;19975;-73
2022/01/12 11:55:32;;;;;;;;;;;0.80;99.90;;;;;;5030526;28;19920;-73
2022/01/12 11:58:03;;;;;;;;;;;0.60;99.90;;;;;;5030374;28;19917;-75
2022/01/12 12:00:30;;;;;;;;;;;0.60;99.90;;;;;;5029770;28;19966;-73
2022/01/12 12:02:57;;;;;;;;;;;0.70;99.90;;;;;;5030699;28;19967;-76
2022/01/12 12:05:25;;;;;;;;;;;0.80;99.90;;;;;;5031620;28;19917;-73
2022/01/12 12:07:52;;;;;;;;;;;0.60;99.90;;;;;;5029501;28;19913;-72
2022/01/12 12:10:22;;;;;;;;;;;0.50;99.90;;;;;;5031706;28;19917;-75
2022/01/12 12:12:49;;;;;;;;;;;0.40;99.90;;;;;;5030821;28;20014;-75
2022/01/12 12:15:15;;;;;;;;;;;0.40;99.90;;;;;;5032812;28;20012;-73
2022/01/12 12:17:42;;;;;;;;;;;0.40;99.90;;;;;;5028896;28;19996;-74
2022/01/12 12:20:10;;;;;;;;;;;0.50;99.90;;;;;;5029183;28;19928;-74
2022/01/12 12:22:39;;;;;;;;;;;0.60;99.90;;;;;;5029442;28;19967;-73
2022/01/12 12:25:09;;;;;;;;;;;0.50;99.90;;;;;;5030603;28;19913;-73
2022/01/12 12:27:35;;;;;;;;;;;0.60;99.90;;;;;;5030413;28;19913;-74
2022/01/12 12:30:02;;;;;;;;;;;0.50;99.90;;;;;;5030987;28;20035;-73
2022/01/12 12:32:34;;;;;;;;;;;0.40;99.90;;;;;;5030449;28;19925;-73
2022/01/12 12:35:01;;;;;;;;;;;0.40;99.90;;;;;;5030627;28;19913;-73
2022/01/12 12:37:32;;;;;;;;;;;0.50;99.90;;;;;;5030638;28;19940;-74
2022/01/12 12:39:58;;;;;;;;;;;0.40;99.90;;;;;;5029744;28;19917;-73
2022/01/12 12:42:24;;;;;;;;;;;0.30;99.90;;;;;;5030847;28;19913;-73
2022/01/12 12:44:55;;;;;;;;;;;0.20;99.90;;;;;;5030553;28;20016;-73
2022/01/12 12:47:21;;;;;;;;;;;0.20;99.90;;;;;;5033159;28;20253;-73
2022/01/12 12:49:48;;;;;;;;;;;0.40;99.90;;;;;;5049256;28;19924;-72
2022/01/12 12:52:34;;;;;;;;;;;0.40;99.90;;;;;;5050465;28;20380;-73
2022/01/12 12:55:01;;;;;;;;;;;0.30;99.90;;;;;;5048710;28;20261;-73
2022/01/12 12:57:27;;;;;;;;;;;0.40;99.90;;;;;;5040363;28;19971;-73
2022/01/12 13:00:13;;;;;;;;;;;0.40;99.90;;;;;;5032048;28;19968;-74
2022/01/12 13:02:40;;;;;;;;;;;0.50;99.90;;;;;;5033224;28;20031;-73
2022/01/12 13:05:07;;;;;;;;;;;0.50;99.90;;;;;;5034305;28;19967;-74
2022/01/12 13:07:39;;;;;;;;;;;0.60;99.90;;;;;;5033970;28;19964;-73
2022/01/12 13:10:09;;;;;;;;;;;0.70;99.90;;;;;;5033244;28;20284;-73
2022/01/12 13:12:39;;;;;;;;;;;0.60;99.90;;;;;;5034311;28;20411;-73
2022/01/12 13:15:07;;;;;;;;;;;0.70;99.90;;;;;;5033602;28;19917;-74
2022/01/12 13:17:33;;;;;;;;;;;1.10;99.90;;;;;;5031499;28;19955;-74
2022/01/12 13:22:27;;;;;;;;;;;1.00;99.90;;;;;;5033421;28;19913;-75
2022/01/12 13:24:53;;;;;;;;;;;1.10;99.90;;;;;;5031920;28;20435;-74
2022/01/12 13:27:20;;;;;;;;;;;1.30;99.90;;;;;;5032975;28;19917;-75
2022/01/12 13:29:49;;;;;;;;;;;1.30;99.90;;;;;;5031549;28;19952;-75
2022/01/12 13:32:15;;;;;;;;;;;1.50;99.90;;;;;;5032867;28;19982;-75
2022/01/12 13:34:43;;;;;;;;;;;1.50;99.90;;;;;;5033469;28;20051;-75
2022/01/12 13:37:15;;;;;;;;;;;1.50;99.90;;;;;;5034646;28;19913;-75
2022/01/12 13:39:42;;;;;;;;;;;1.50;99.90;;;;;;5034063;28;19913;-74
2022/01/12 13:42:08;;;;;;;;;;;1.10;99.90;;;;;;5035165;28;19913;-75
2022/01/12 13:44:34;;;;;;;;;;;1.10;99.90;;;;;;5034425;28;20280;-74
2022/01/12 13:47:20;;;;;;;;;;;1.10;99.90;;;;;;5033634;28;20057;-75
2022/01/12 13:49:46;;;;;;;;;;;1.10;99.90;;;;;;5033312;28;20470;-75
2022/01/12 13:52:12;;;;;;;;;;;1.20;99.90;;;;;;5036172;28;20028;-75
2022/01/12 13:54:41;;;;;;;;;;;1.10;99.90;;;;;;5034161;28;19948;-75
2022/01/12 13:57:09;;;;;;;;;;;1.10;99.90;;;;;;5034092;28;19921;-75
2022/01/12 13:59:51;;;;;;;;;;;1.40;99.90;;;;;;5032880;28;19913;-75
2022/01/12 14:02:18;;;;;;;;;;;1.20;99.90;;;;;;5033388;28;20122;-75
2022/01/12 14:04:59;;;;;;;;;;;1.30;99.90;;;;;;5033428;28;19913;-75
2022/01/12 14:07:25;;;;;;;;;;;1.20;99.90;;;;;;5034842;28;19920;-75
2022/01/12 14:09:54;;;;;;;;;;;1.10;99.90;;;;;;5033166;28;20392;-75
2022/01/12 14:12:20;;;;;;;;;;;1.20;99.90;;;;;;5033842;28;19921;-75
2022/01/12 14:14:57;;;;;;;;;;;1.10;99.90;;;;;;5032427;28;20448;-75
2022/01/12 14:17:37;;;;;;;;;;;1.20;99.90;;;;;;5033231;28;19924;-75
2022/01/12 14:20:07;;;;;;;;;;;1.30;99.90;;;;;;5033768;28;19923;-75
2022/01/12 14:22:45;;;;;;;;;;;1.80;99.90;;;;;;5031887;28;20419;-75
2022/01/12 14:25:11;;;;;;;;;;;1.80;99.90;;;;;;5032285;28;20324;-75
2022/01/12 14:27:41;;;;;;;;;;;1.40;99.90;;;;;;5032239;28;19917;-75
2022/01/12 14:30:07;;;;;;;;;;;1.50;99.90;;;;;;5033743;28;19920;-75
2022/01/12 14:32:36;;;;;;;;;;;1.30;99.90;;;;;;5032712;28;19921;-75
2022/01/12 14:35:06;;;;;;;;;;;1.40;99.90;;;;;;5031982;28;19928;-75
2022/01/12 14:37:32;;;;;;;;;;;1.50;99.90;;;;;;5031059;28;20360;-75
2022/01/12 14:39:58;;;;;;;;;;;1.40;99.90;;;;;;5033510;28;19920;-75
2022/01/12 14:42:24;;;;;;;;;;;1.40;99.90;;;;;;5031777;28;19920;-75
2022/01/12 14:44:49;;;;;;;;;;;1.30;99.90;;;;;;5031832;28;19917;-75
2022/01/12 14:47:15;;;;;;;;;;;1.40;99.90;;;;;;5031664;28;20319;-75
2022/01/12 14:49:41;;;;;;;;;;;1.20;99.90;;;;;;5031805;28;19914;-75
2022/01/12 14:52:06;;;;;;;;;;;1.20;99.90;;;;;;5034282;28;19925;-75
2022/01/12 14:54:32;;;;;;;;;;;1.20;99.90;;;;;;5054194;28;19990;-75
2022/01/12 14:56:57;;;;;;;;;;;1.00;99.90;;;;;;5053942;28;19913;-75
2022/01/12 14:59:23;;;;;;;;;;;0.90;99.90;;;;;;5052714;28;19917;-75
2022/01/12 15:01:49;;;;;;;;;;;0.90;99.90;;;;;;5047594;28;19959;-75
2022/01/12 15:04:14;;;;;;;;;;;0.90;99.90;;;;;;5034627;28;20325;-75
2022/01/12 15:06:40;;;;;;;;;;;0.90;99.90;;;;;;5032734;28;20280;-75
2022/01/12 15:09:06;;;;;;;;;;;0.80;99.90;;;;;;5032605;28;19917;-75
2022/01/12 15:11:38;;;;;;;;;;;0.70;99.90;;;;;;5031079;28;19967;-75
2022/01/12 15:14:21;;;;;;;;;;;0.70;99.90;;;;;;5033079;28;20000;-74
2022/01/12 15:16:47;;;;;;;;;;;0.60;99.90;;;;;;5033295;28;19917;-75
2022/01/12 15:19:12;;;;;;;;;;;0.60;99.90;;;;;;5031560;28;19920;-74
2022/01/12 15:21:38;;;;;;;;;;;0.60;99.90;;;;;;5031466;28;19913;-74
2022/01/12 15:24:04;;;;;;;;;;;0.60;99.90;;;;;;5032279;28;19913;-75
2022/01/12 15:26:30;;;;;;;;;;;0.60;99.90;;;;;;5032891;28;19913;-74
2022/01/12 15:28:55;;;;;;;;;;;0.60;99.90;;;;;;5032896;28;19913;-75
2022/01/12 15:31:21;;;;;;;;;;;0.60;99.90;;;;;;5031494;28;19921;-75
2022/01/12 15:33:47;;;;;;;;;;;0.70;99.90;;;;;;5031273;28;20326;-75
2022/01/12 15:36:12;;;;;;;;;;;0.70;99.90;;;;;;5031579;28;19956;-75
2022/01/12 15:38:38;;;;;;;;;;;0.60;99.90;;;;;;5031240;28;20063;-75
2022/01/12 15:41:04;;;;;;;;;;;0.50;99.90;;;;;;5030824;28;20000;-75
2022/01/12 15:43:29;;;;;;;;;;;0.50;99.90;;;;;;5031482;28;20359;-75
2022/01/12 15:45:55;;;;;;;;;;;0.50;99.90;;;;;;5031604;28;19924;-74
2022/01/12 15:48:20;;;;;;;;;;;0.40;99.90;;;;;;5030940;28;20364;-74
2022/01/12 15:50:46;;;;;;;;;;;0.30;99.90;;;;;;5031874;28;19920;-74
2022/01/12 15:53:12;;;;;;;;;;;0.10;99.90;;;;;;5048332;28;19999;-75
2022/01/12 15:55:38;;;;;;;;;;;0.10;99.90;;;;;;5032314;28;20364;-74
2022/01/12 15:58:03;;;;;;;;;;;0.00;99.90;;;;;;5030736;28;19971;-74